Tryon, North Carolina
Current Conditions -  °F | °C
As of 8:53 PM on Monday 24 Nov 2014 (Local Time) from KGSP Reporting Station
Clear Clear  
Wind Chill: 63°   Ceiling: Unl
Heat Index: 63°   Visibility: 10mi
Dew Point: 60°   Wind: 12mph
Humidity: 90%   Direction: 210°SSW
Pressure: 29.89"   Gusts: NA
Location:  35.21°N, 82.24°W
Report Text: KGSP 250153Z 21010KT 10SM CLR 17/16 A2989 RMK AO2 SLP115 T01720156
Loading
Personal Weather Stations






























Interactive Weather Map New forecast layout! Learn more

10-Day Weather Forecast

Advertisements
Track Severe Weather on mobile